sensor_id;sensor_type;location;lat;lon;timestamp;temperature;humidity
24452;DHT22;13350;50.984;5.822;2023-01-15T00:01:23;6.40;99.90
24452;DHT22;13350;50.984;5.822;2023-01-15T00:03:50;6.40;99.90
24452;DHT22;13350;50.984;5.822;2023-01-15T00:06:18;6.40;99.90
24452;DHT22;13350;50.984;5.822;2023-01-15T00:08:45;6.40;99.90
24452;DHT22;13350;50.984;5.822;2023-01-15T00:11:14;6.30;99.90
24452;DHT22;13350;50.984;5.822;2023-01-15T00:13:41;6.40;99.90
24452;DHT22;13350;50.984;5.822;2023-01-15T00:16:11;6.40;99.90
24452;DHT22;13350;50.984;5.822;2023-01-15T00:18:38;6.40;99.90
24452;DHT22;13350;50.984;5.822;2023-01-15T00:21:07;6.50;99.90
24452;DHT22;13350;50.984;5.822;2023-01-15T00:23:34;6.40;99.90
24452;DHT22;13350;50.984;5.822;2023-01-15T00:26:27;6.40;99.90
24452;DHT22;13350;50.984;5.822;2023-01-15T00:29:13;6.50;99.90
24452;DHT22;13350;50.984;5.822;2023-01-15T00:31:40;6.60;99.90
24452;DHT22;13350;50.984;5.822;2023-01-15T00:34:08;6.80;99.90
24452;DHT22;13350;50.984;5.822;2023-01-15T00:36:35;6.80;99.90
24452;DHT22;13350;50.984;5.822;2023-01-15T00:39:03;6.80;99.90
24452;DHT22;13350;50.984;5.822;2023-01-15T00:41:32;6.80;99.90
24452;DHT22;13350;50.984;5.822;2023-01-15T00:43:59;6.70;99.90
24452;DHT22;13350;50.984;5.822;2023-01-15T00:46:26;6.80;99.90
24452;DHT22;13350;50.984;5.822;2023-01-15T00:48:53;6.80;99.90
24452;DHT22;13350;50.984;5.822;2023-01-15T00:51:20;6.80;99.90
24452;DHT22;13350;50.984;5.822;2023-01-15T00:53:48;6.80;99.90
24452;DHT22;13350;50.984;5.822;2023-01-15T00:56:15;6.80;99.90
24452;DHT22;13350;50.984;5.822;2023-01-15T00:58:43;7.00;99.90
24452;DHT22;13350;50.984;5.822;2023-01-15T01:01:12;7.00;99.90
24452;DHT22;13350;50.984;5.822;2023-01-15T01:03:39;6.90;99.90
24452;DHT22;13350;50.984;5.822;2023-01-15T01:06:07;6.90;99.90
24452;DHT22;13350;50.984;5.822;2023-01-15T01:08:35;6.80;99.90
24452;DHT22;13350;50.984;5.822;2023-01-15T01:11:03;6.90;99.90
24452;DHT22;13350;50.984;5.822;2023-01-15T01:13:31;7.10;99.90
24452;DHT22;13350;50.984;5.822;2023-01-15T01:16:00;7.10;99.90
24452;DHT22;13350;50.984;5.822;2023-01-15T01:18:27;7.00;99.90
24452;DHT22;13350;50.984;5.822;2023-01-15T01:20:55;7.00;99.90
24452;DHT22;13350;50.984;5.822;2023-01-15T01:23:23;6.90;99.90
24452;DHT22;13350;50.984;5.822;2023-01-15T01:25:50;6.90;99.90
24452;DHT22;13350;50.984;5.822;2023-01-15T01:28:17;6.90;99.90
24452;DHT22;13350;50.984;5.822;2023-01-15T01:30:45;7.00;99.90
24452;DHT22;13350;50.984;5.822;2023-01-15T01:33:13;7.10;99.90
24452;DHT22;13350;50.984;5.822;2023-01-15T01:35:47;7.20;99.90
24452;DHT22;13350;50.984;5.822;2023-01-15T01:38:14;7.10;99.90
24452;DHT22;13350;50.984;5.822;2023-01-15T01:40:41;7.10;99.90
24452;DHT22;13350;50.984;5.822;2023-01-15T01:43:16;7.10;99.90
24452;DHT22;13350;50.984;5.822;2023-01-15T01:45:45;7.10;99.90
24452;DHT22;13350;50.984;5.822;2023-01-15T01:48:16;7.10;99.90
24452;DHT22;13350;50.984;5.822;2023-01-15T01:50:45;7.20;99.90
24452;DHT22;13350;50.984;5.822;2023-01-15T01:53:16;7.20;99.90
24452;DHT22;13350;50.984;5.822;2023-01-15T01:55:44;7.20;99.90
24452;DHT22;13350;50.984;5.822;2023-01-15T01:58:13;7.40;99.90
24452;DHT22;13350;50.984;5.822;2023-01-15T02:00:44;7.40;99.90
24452;DHT22;13350;50.984;5.822;2023-01-15T02:03:17;7.50;99.90
24452;DHT22;13350;50.984;5.822;2023-01-15T02:05:49;7.50;99.90
24452;DHT22;13350;50.984;5.822;2023-01-15T02:08:18;7.50;99.90
24452;DHT22;13350;50.984;5.822;2023-01-15T02:10:48;7.40;99.90
24452;DHT22;13350;50.984;5.822;2023-01-15T02:13:20;7.30;99.90
24452;DHT22;13350;50.984;5.822;2023-01-15T02:15:52;7.40;99.90
24452;DHT22;13350;50.984;5.822;2023-01-15T02:18:25;7.30;99.90
24452;DHT22;13350;50.984;5.822;2023-01-15T02:20:58;7.30;99.90
24452;DHT22;13350;50.984;5.822;2023-01-15T02:23:39;7.30;99.90
24452;DHT22;13350;50.984;5.822;2023-01-15T02:26:59;7.20;99.90
24452;DHT22;13350;50.984;5.822;2023-01-15T02:29:39;7.20;99.90
24452;DHT22;13350;50.984;5.822;2023-01-15T02:32:12;7.20;99.90
24452;DHT22;13350;50.984;5.822;2023-01-15T02:34:45;7.30;99.90
24452;DHT22;13350;50.984;5.822;2023-01-15T02:37:17;7.40;99.90
24452;DHT22;13350;50.984;5.822;2023-01-15T02:39:47;7.40;99.90
24452;DHT22;13350;50.984;5.822;2023-01-15T02:42:18;7.30;99.90
24452;DHT22;13350;50.984;5.822;2023-01-15T02:44:50;7.30;99.90
24452;DHT22;13350;50.984;5.822;2023-01-15T02:47:21;7.20;99.90
24452;DHT22;13350;50.984;5.822;2023-01-15T02:49:51;7.20;99.90
24452;DHT22;13350;50.984;5.822;2023-01-15T02:52:23;7.30;99.90
24452;DHT22;13350;50.984;5.822;2023-01-15T02:54:54;7.10;99.90
24452;DHT22;13350;50.984;5.822;2023-01-15T02:57:25;7.00;99.90
24452;DHT22;13350;50.984;5.822;2023-01-15T02:59:54;7.00;99.90
24452;DHT22;13350;50.984;5.822;2023-01-15T03:02:26;7.00;99.90
24452;DHT22;13350;50.984;5.822;2023-01-15T03:04:56;7.00;99.90
24452;DHT22;13350;50.984;5.822;2023-01-15T03:07:30;7.10;99.90
24452;DHT22;13350;50.984;5.822;2023-01-15T03:09:58;7.10;99.90
24452;DHT22;13350;50.984;5.822;2023-01-15T03:12:28;7.00;99.90
24452;DHT22;13350;50.984;5.822;2023-01-15T03:15:04;7.10;99.90
24452;DHT22;13350;50.984;5.822;2023-01-15T03:17:36;7.10;99.90
24452;DHT22;13350;50.984;5.822;2023-01-15T03:20:10;7.20;99.90
24452;DHT22;13350;50.984;5.822;2023-01-15T03:22:41;7.10;99.90
24452;DHT22;13350;50.984;5.822;2023-01-15T03:25:12;7.10;99.90
24452;DHT22;13350;50.984;5.822;2023-01-15T03:27:42;7.00;99.90
24452;DHT22;13350;50.984;5.822;2023-01-15T03:30:12;6.90;99.90
24452;DHT22;13350;50.984;5.822;2023-01-15T03:32:40;7.10;99.90
24452;DHT22;13350;50.984;5.822;2023-01-15T03:35:44;7.10;99.90
24452;DHT22;13350;50.984;5.822;2023-01-15T03:38:12;7.10;99.90
24452;DHT22;13350;50.984;5.822;2023-01-15T03:40:49;7.10;99.90
24452;DHT22;13350;50.984;5.822;2023-01-15T03:43:20;7.00;99.90
24452;DHT22;13350;50.984;5.822;2023-01-15T03:46:15;6.90;99.90
24452;DHT22;13350;50.984;5.822;2023-01-15T03:48:53;7.00;99.90
24452;DHT22;13350;50.984;5.822;2023-01-15T03:51:24;7.00;99.90
24452;DHT22;13350;50.984;5.822;2023-01-15T03:53:55;7.00;99.90
24452;DHT22;13350;50.984;5.822;2023-01-15T03:56:30;7.00;99.90
24452;DHT22;13350;50.984;5.822;2023-01-15T03:59:03;7.00;99.90
24452;DHT22;13350;50.984;5.822;2023-01-15T04:01:35;6.90;99.90
24452;DHT22;13350;50.984;5.822;2023-01-15T04:04:04;6.90;99.90
24452;DHT22;13350;50.984;5.822;2023-01-15T04:06:35;6.90;99.90
24452;DHT22;13350;50.984;5.822;2023-01-15T04:09:05;6.90;99.90
24452;DHT22;13350;50.984;5.822;2023-01-15T04:11:33;6.90;99.90
24452;DHT22;13350;50.984;5.822;2023-01-15T04:14:02;6.90;99.90
24452;DHT22;13350;50.984;5.822;2023-01-15T04:16:30;7.00;99.90
24452;DHT22;13350;50.984;5.822;2023-01-15T04:18:58;6.90;99.90
24452;DHT22;13350;50.984;5.822;2023-01-15T04:21:25;6.90;99.90
24452;DHT22;13350;50.984;5.822;2023-01-15T04:23:52;7.00;99.90
24452;DHT22;13350;50.984;5.822;2023-01-15T04:26:19;7.00;99.90
24452;DHT22;13350;50.984;5.822;2023-01-15T04:28:47;7.00;99.90
24452;DHT22;13350;50.984;5.822;2023-01-15T04:31:15;7.00;99.90
24452;DHT22;13350;50.984;5.822;2023-01-15T04:33:43;7.00;99.90
24452;DHT22;13350;50.984;5.822;2023-01-15T04:36:10;7.00;99.90
24452;DHT22;13350;50.984;5.822;2023-01-15T04:38:39;7.00;99.90
24452;DHT22;13350;50.984;5.822;2023-01-15T04:41:08;7.00;99.90
24452;DHT22;13350;50.984;5.822;2023-01-15T04:43:52;6.90;99.90
24452;DHT22;13350;50.984;5.822;2023-01-15T04:46:37;7.00;99.90
24452;DHT22;13350;50.984;5.822;2023-01-15T04:49:07;7.00;99.90
24452;DHT22;13350;50.984;5.822;2023-01-15T04:51:34;7.00;99.90
24452;DHT22;13350;50.984;5.822;2023-01-15T04:54:03;7.00;99.90
24452;DHT22;13350;50.984;5.822;2023-01-15T04:56:30;6.90;99.90
24452;DHT22;13350;50.984;5.822;2023-01-15T04:58:59;6.90;99.90
24452;DHT22;13350;50.984;5.822;2023-01-15T05:01:26;6.80;99.90
24452;DHT22;13350;50.984;5.822;2023-01-15T05:03:55;6.90;99.90
24452;DHT22;13350;50.984;5.822;2023-01-15T05:06:23;6.90;99.90
24452;DHT22;13350;50.984;5.822;2023-01-15T05:08:50;6.90;99.90
24452;DHT22;13350;50.984;5.822;2023-01-15T05:11:18;6.90;99.90
24452;DHT22;13350;50.984;5.822;2023-01-15T05:13:45;6.80;99.90
24452;DHT22;13350;50.984;5.822;2023-01-15T05:16:14;6.80;99.90
24452;DHT22;13350;50.984;5.822;2023-01-15T05:18:42;6.80;99.90
24452;DHT22;13350;50.984;5.822;2023-01-15T05:21:18;6.80;99.90
24452;DHT22;13350;50.984;5.822;2023-01-15T05:23:47;6.80;99.90
24452;DHT22;13350;50.984;5.822;2023-01-15T05:26:14;6.80;99.90
24452;DHT22;13350;50.984;5.822;2023-01-15T05:28:42;6.80;99.90
24452;DHT22;13350;50.984;5.822;2023-01-15T05:31:10;6.80;99.90
24452;DHT22;13350;50.984;5.822;2023-01-15T05:33:38;6.80;99.90
24452;DHT22;13350;50.984;5.822;2023-01-15T05:36:08;6.90;99.90
24452;DHT22;13350;50.984;5.822;2023-01-15T05:38:37;6.90;99.90
24452;DHT22;13350;50.984;5.822;2023-01-15T05:41:05;6.90;99.90
24452;DHT22;13350;50.984;5.822;2023-01-15T05:43:53;6.80;99.90
24452;DHT22;13350;50.984;5.822;2023-01-15T05:46:21;6.80;99.90
24452;DHT22;13350;50.984;5.822;2023-01-15T05:48:48;6.80;99.90
24452;DHT22;13350;50.984;5.822;2023-01-15T05:51:16;6.80;99.90
24452;DHT22;13350;50.984;5.822;2023-01-15T05:53:44;6.80;99.90
24452;DHT22;13350;50.984;5.822;2023-01-15T05:56:11;6.70;99.90
24452;DHT22;13350;50.984;5.822;2023-01-15T05:58:39;6.70;99.90
24452;DHT22;13350;50.984;5.822;2023-01-15T06:01:09;6.70;99.90
24452;DHT22;13350;50.984;5.822;2023-01-15T06:03:37;6.70;99.90
24452;DHT22;13350;50.984;5.822;2023-01-15T06:06:04;6.70;99.90
24452;DHT22;13350;50.984;5.822;2023-01-15T06:08:31;6.70;99.90
24452;DHT22;13350;50.984;5.822;2023-01-15T06:11:00;6.70;99.90
24452;DHT22;13350;50.984;5.822;2023-01-15T06:13:27;6.70;99.90
24452;DHT22;13350;50.984;5.822;2023-01-15T06:15:54;6.60;99.90
24452;DHT22;13350;50.984;5.822;2023-01-15T06:18:22;6.70;99.90
24452;DHT22;13350;50.984;5.822;2023-01-15T06:20:49;6.70;99.90
24452;DHT22;13350;50.984;5.822;2023-01-15T06:23:16;6.60;99.90
24452;DHT22;13350;50.984;5.822;2023-01-15T06:25:44;6.60;99.90
24452;DHT22;13350;50.984;5.822;2023-01-15T06:28:12;6.60;99.90
24452;DHT22;13350;50.984;5.822;2023-01-15T06:30:40;6.70;99.90
24452;DHT22;13350;50.984;5.822;2023-01-15T06:33:07;6.60;99.90
24452;DHT22;13350;50.984;5.822;2023-01-15T06:35:34;6.60;99.90
24452;DHT22;13350;50.984;5.822;2023-01-15T06:38:02;6.60;99.90
24452;DHT22;13350;50.984;5.822;2023-01-15T06:40:29;6.60;99.90
24452;DHT22;13350;50.984;5.822;2023-01-15T06:42:57;6.60;99.90
24452;DHT22;13350;50.984;5.822;2023-01-15T06:45:43;6.60;99.90
24452;DHT22;13350;50.984;5.822;2023-01-15T06:48:28;6.60;99.90
24452;DHT22;13350;50.984;5.822;2023-01-15T06:50:58;6.60;99.90
24452;DHT22;13350;50.984;5.822;2023-01-15T06:53:25;6.60;99.90
24452;DHT22;13350;50.984;5.822;2023-01-15T06:55:52;6.50;99.90
24452;DHT22;13350;50.984;5.822;2023-01-15T06:58:19;6.50;99.90
24452;DHT22;13350;50.984;5.822;2023-01-15T07:00:49;6.60;99.90
24452;DHT22;13350;50.984;5.822;2023-01-15T07:03:20;6.60;99.90
24452;DHT22;13350;50.984;5.822;2023-01-15T07:05:48;6.50;99.90
24452;DHT22;13350;50.984;5.822;2023-01-15T07:08:15;6.40;99.90
24452;DHT22;13350;50.984;5.822;2023-01-15T07:10:42;6.50;99.90
24452;DHT22;13350;50.984;5.822;2023-01-15T07:13:09;6.50;99.90
24452;DHT22;13350;50.984;5.822;2023-01-15T07:15:37;6.40;99.90
24452;DHT22;13350;50.984;5.822;2023-01-15T07:18:06;6.40;99.90
24452;DHT22;13350;50.984;5.822;2023-01-15T07:20:33;6.50;99.90
24452;DHT22;13350;50.984;5.822;2023-01-15T07:23:00;6.40;99.90
24452;DHT22;13350;50.984;5.822;2023-01-15T07:25:27;6.40;99.90
24452;DHT22;13350;50.984;5.822;2023-01-15T07:27:54;6.30;99.90
24452;DHT22;13350;50.984;5.822;2023-01-15T07:30:21;6.30;99.90
24452;DHT22;13350;50.984;5.822;2023-01-15T07:32:48;6.20;99.90
24452;DHT22;13350;50.984;5.822;2023-01-15T07:35:17;6.10;99.90
24452;DHT22;13350;50.984;5.822;2023-01-15T07:37:44;6.00;99.90
24452;DHT22;13350;50.984;5.822;2023-01-15T07:40:11;6.00;99.90
24452;DHT22;13350;50.984;5.822;2023-01-15T07:42:38;5.90;99.90
24452;DHT22;13350;50.984;5.822;2023-01-15T07:45:23;5.90;99.90
24452;DHT22;13350;50.984;5.822;2023-01-15T07:48:09;5.80;99.90
24452;DHT22;13350;50.984;5.822;2023-01-15T07:50:55;5.80;99.90
24452;DHT22;13350;50.984;5.822;2023-01-15T07:53:22;5.70;99.90
24452;DHT22;13350;50.984;5.822;2023-01-15T07:55:49;5.60;99.90
24452;DHT22;13350;50.984;5.822;2023-01-15T07:58:16;5.60;99.90
24452;DHT22;13350;50.984;5.822;2023-01-15T08:00:43;5.50;99.90
24452;DHT22;13350;50.984;5.822;2023-01-15T08:03:10;5.50;99.90
24452;DHT22;13350;50.984;5.822;2023-01-15T08:05:38;5.50;99.90
24452;DHT22;13350;50.984;5.822;2023-01-15T08:08:13;5.50;99.90
24452;DHT22;13350;50.984;5.822;2023-01-15T08:10:41;5.40;99.90
24452;DHT22;13350;50.984;5.822;2023-01-15T08:13:30;5.50;99.90
24452;DHT22;13350;50.984;5.822;2023-01-15T08:16:15;5.50;99.90
24452;DHT22;13350;50.984;5.822;2023-01-15T08:18:42;5.50;99.90
24452;DHT22;13350;50.984;5.822;2023-01-15T08:21:13;5.60;99.90
24452;DHT22;13350;50.984;5.822;2023-01-15T08:23:42;5.70;99.90
24452;DHT22;13350;50.984;5.822;2023-01-15T08:26:11;5.70;99.90
24452;DHT22;13350;50.984;5.822;2023-01-15T08:28:39;5.80;99.90
24452;DHT22;13350;50.984;5.822;2023-01-15T08:31:06;5.80;99.90
24452;DHT22;13350;50.984;5.822;2023-01-15T08:33:34;5.80;99.90
24452;DHT22;13350;50.984;5.822;2023-01-15T08:36:01;5.80;99.90
24452;DHT22;13350;50.984;5.822;2023-01-15T08:38:28;5.80;99.90
24452;DHT22;13350;50.984;5.822;2023-01-15T08:40:57;5.80;99.90
24452;DHT22;13350;50.984;5.822;2023-01-15T08:43:24;5.70;99.90
24452;DHT22;13350;50.984;5.822;2023-01-15T08:45:52;5.80;99.90
24452;DHT22;13350;50.984;5.822;2023-01-15T08:48:22;5.80;99.90
24452;DHT22;13350;50.984;5.822;2023-01-15T08:50:49;5.90;99.90
24452;DHT22;13350;50.984;5.822;2023-01-15T08:53:17;5.90;99.90
24452;DHT22;13350;50.984;5.822;2023-01-15T08:55:45;6.00;99.90
24452;DHT22;13350;50.984;5.822;2023-01-15T08:58:14;5.90;99.90
24452;DHT22;13350;50.984;5.822;2023-01-15T09:00:42;6.00;99.90
24452;DHT22;13350;50.984;5.822;2023-01-15T09:03:09;6.00;99.90
24452;DHT22;13350;50.984;5.822;2023-01-15T09:05:36;6.10;99.90
24452;DHT22;13350;50.984;5.822;2023-01-15T09:08:04;6.00;99.90
24452;DHT22;13350;50.984;5.822;2023-01-15T09:10:31;6.20;99.90
24452;DHT22;13350;50.984;5.822;2023-01-15T09:12:58;6.80;99.90
24452;DHT22;13350;50.984;5.822;2023-01-15T09:15:28;7.10;99.90
24452;DHT22;13350;50.984;5.822;2023-01-15T09:17:56;7.20;99.90
24452;DHT22;13350;50.984;5.822;2023-01-15T09:20:23;7.30;99.90
24452;DHT22;13350;50.984;5.822;2023-01-15T09:22:50;7.40;99.90
24452;DHT22;13350;50.984;5.822;2023-01-15T09:25:18;7.40;99.90
24452;DHT22;13350;50.984;5.822;2023-01-15T09:27:49;7.20;99.90
24452;DHT22;13350;50.984;5.822;2023-01-15T09:30:18;7.00;99.90
24452;DHT22;13350;50.984;5.822;2023-01-15T09:32:47;7.00;99.90
24452;DHT22;13350;50.984;5.822;2023-01-15T09:35:15;7.10;99.90
24452;DHT22;13350;50.984;5.822;2023-01-15T09:37:42;7.30;99.90
24452;DHT22;13350;50.984;5.822;2023-01-15T09:40:22;7.60;99.90
24452;DHT22;13350;50.984;5.822;2023-01-15T09:42:57;7.20;99.90
24452;DHT22;13350;50.984;5.822;2023-01-15T09:45:30;6.80;99.90
24452;DHT22;13350;50.984;5.822;2023-01-15T09:48:18;7.20;99.90
24452;DHT22;13350;50.984;5.822;2023-01-15T09:50:59;7.20;99.90
24452;DHT22;13350;50.984;5.822;2023-01-15T09:56:20;7.70;99.90
24452;DHT22;13350;50.984;5.822;2023-01-15T09:58:49;7.50;99.90
24452;DHT22;13350;50.984;5.822;2023-01-15T10:01:20;7.40;99.90
24452;DHT22;13350;50.984;5.822;2023-01-15T10:03:56;7.20;99.90
24452;DHT22;13350;50.984;5.822;2023-01-15T10:06:28;7.40;99.90
24452;DHT22;13350;50.984;5.822;2023-01-15T10:09:03;7.50;99.90
24452;DHT22;13350;50.984;5.822;2023-01-15T10:11:38;7.60;99.90
24452;DHT22;13350;50.984;5.822;2023-01-15T10:14:42;7.80;99.90
24452;DHT22;13350;50.984;5.822;2023-01-15T10:17:26;8.00;99.90
24452;DHT22;13350;50.984;5.822;2023-01-15T10:19:56;8.00;99.90
24452;DHT22;13350;50.984;5.822;2023-01-15T10:22:43;8.10;99.90
24452;DHT22;13350;50.984;5.822;2023-01-15T10:25:15;7.60;99.90
24452;DHT22;13350;50.984;5.822;2023-01-15T10:27:46;7.60;99.90
24452;DHT22;13350;50.984;5.822;2023-01-15T10:30:16;8.20;99.90
24452;DHT22;13350;50.984;5.822;2023-01-15T10:32:49;8.10;99.90
24452;DHT22;13350;50.984;5.822;2023-01-15T10:35:29;7.40;99.90
24452;DHT22;13350;50.984;5.822;2023-01-15T10:38:00;7.10;99.90
24452;DHT22;13350;50.984;5.822;2023-01-15T10:43:34;7.20;99.90
24452;DHT22;13350;50.984;5.822;2023-01-15T10:46:10;7.10;99.90
24452;DHT22;13350;50.984;5.822;2023-01-15T10:48:41;7.00;99.90
24452;DHT22;13350;50.984;5.822;2023-01-15T10:51:16;7.00;99.90
24452;DHT22;13350;50.984;5.822;2023-01-15T10:53:48;6.90;99.90
24452;DHT22;13350;50.984;5.822;2023-01-15T10:56:27;7.00;99.90
24452;DHT22;13350;50.984;5.822;2023-01-15T10:58:59;7.00;99.90
24452;DHT22;13350;50.984;5.822;2023-01-15T11:01:33;6.90;99.90
24452;DHT22;13350;50.984;5.822;2023-01-15T11:04:01;6.80;99.90
24452;DHT22;13350;50.984;5.822;2023-01-15T11:06:30;6.80;99.90
24452;DHT22;13350;50.984;5.822;2023-01-15T11:08:58;6.80;99.90
24452;DHT22;13350;50.984;5.822;2023-01-15T11:11:30;6.80;99.90
24452;DHT22;13350;50.984;5.822;2023-01-15T11:14:36;6.90;99.90
24452;DHT22;13350;50.984;5.822;2023-01-15T11:17:23;7.00;99.90
24452;DHT22;13350;50.984;5.822;2023-01-15T11:20:24;7.40;99.90
24452;DHT22;13350;50.984;5.822;2023-01-15T11:22:54;7.60;99.90
24452;DHT22;13350;50.984;5.822;2023-01-15T11:25:26;7.30;99.90
24452;DHT22;13350;50.984;5.822;2023-01-15T11:27:54;7.10;99.90
24452;DHT22;13350;50.984;5.822;2023-01-15T11:30:27;6.90;99.90
24452;DHT22;13350;50.984;5.822;2023-01-15T11:32:56;6.80;99.90
24452;DHT22;13350;50.984;5.822;2023-01-15T11:35:24;6.80;99.90
24452;DHT22;13350;50.984;5.822;2023-01-15T11:38:03;6.60;99.90
24452;DHT22;13350;50.984;5.822;2023-01-15T11:40:31;6.80;99.90
24452;DHT22;13350;50.984;5.822;2023-01-15T11:42:59;6.80;99.90
24452;DHT22;13350;50.984;5.822;2023-01-15T11:45:47;6.90;99.90
24452;DHT22;13350;50.984;5.822;2023-01-15T11:48:42;7.10;99.90
24452;DHT22;13350;50.984;5.822;2023-01-15T11:51:28;7.70;99.90
24452;DHT22;13350;50.984;5.822;2023-01-15T11:54:02;8.30;99.90
24452;DHT22;13350;50.984;5.822;2023-01-15T11:56:31;8.20;99.90
24452;DHT22;13350;50.984;5.822;2023-01-15T11:59:02;8.10;99.90
24452;DHT22;13350;50.984;5.822;2023-01-15T12:01:31;7.50;99.90
24452;DHT22;13350;50.984;5.822;2023-01-15T12:04:00;7.50;99.90
24452;DHT22;13350;50.984;5.822;2023-01-15T12:06:30;7.80;99.90
24452;DHT22;13350;50.984;5.822;2023-01-15T12:09:03;7.80;99.90
24452;DHT22;13350;50.984;5.822;2023-01-15T12:11:49;7.90;99.90
24452;DHT22;13350;50.984;5.822;2023-01-15T12:14:48;7.80;99.90
24452;DHT22;13350;50.984;5.822;2023-01-15T12:17:44;7.70;99.90
24452;DHT22;13350;50.984;5.822;2023-01-15T12:20:20;7.60;99.90
24452;DHT22;13350;50.984;5.822;2023-01-15T12:22:59;7.50;99.90
24452;DHT22;13350;50.984;5.822;2023-01-15T12:25:39;7.80;99.90
24452;DHT22;13350;50.984;5.822;2023-01-15T12:28:12;8.10;99.90
24452;DHT22;13350;50.984;5.822;2023-01-15T12:30:47;7.90;99.90
24452;DHT22;13350;50.984;5.822;2023-01-15T12:33:26;7.90;99.90
24452;DHT22;13350;50.984;5.822;2023-01-15T12:36:01;7.60;99.90
24452;DHT22;13350;50.984;5.822;2023-01-15T12:38:48;7.40;99.90
24452;DHT22;13350;50.984;5.822;2023-01-15T12:41:22;7.70;99.90
24452;DHT22;13350;50.984;5.822;2023-01-15T12:43:53;7.60;99.90
24452;DHT22;13350;50.984;5.822;2023-01-15T12:46:41;7.50;99.90
24452;DHT22;13350;50.984;5.822;2023-01-15T12:49:20;7.50;99.90
24452;DHT22;13350;50.984;5.822;2023-01-15T12:51:54;7.60;99.90
24452;DHT22;13350;50.984;5.822;2023-01-15T12:54:27;7.90;99.90
24452;DHT22;13350;50.984;5.822;2023-01-15T12:57:01;7.90;99.90
24452;DHT22;13350;50.984;5.822;2023-01-15T12:59:34;7.80;99.90
24452;DHT22;13350;50.984;5.822;2023-01-15T13:02:11;7.70;99.90
24452;DHT22;13350;50.984;5.822;2023-01-15T13:04:45;7.60;99.90
24452;DHT22;13350;50.984;5.822;2023-01-15T13:07:16;7.50;99.90
24452;DHT22;13350;50.984;5.822;2023-01-15T13:09:48;7.50;99.90
24452;DHT22;13350;50.984;5.822;2023-01-15T13:12:20;7.50;99.90
24452;DHT22;13350;50.984;5.822;2023-01-15T13:14:47;7.50;99.90
24452;DHT22;13350;50.984;5.822;2023-01-15T13:17:23;7.50;99.90
24452;DHT22;13350;50.984;5.822;2023-01-15T13:20:26;7.40;99.90
24452;DHT22;13350;50.984;5.822;2023-01-15T13:23:02;7.40;99.90
24452;DHT22;13350;50.984;5.822;2023-01-15T13:25:53;7.40;99.90
24452;DHT22;13350;50.984;5.822;2023-01-15T13:28:32;7.40;99.90
24452;DHT22;13350;50.984;5.822;2023-01-15T13:31:08;7.40;99.90
24452;DHT22;13350;50.984;5.822;2023-01-15T13:33:41;7.40;99.90
24452;DHT22;13350;50.984;5.822;2023-01-15T13:36:13;7.40;99.90
24452;DHT22;13350;50.984;5.822;2023-01-15T13:38:44;7.40;99.90
24452;DHT22;13350;50.984;5.822;2023-01-15T13:41:18;7.40;99.90
24452;DHT22;13350;50.984;5.822;2023-01-15T13:44:16;7.30;99.90
24452;DHT22;13350;50.984;5.822;2023-01-15T13:46:45;7.40;99.90
24452;DHT22;13350;50.984;5.822;2023-01-15T13:49:18;7.30;99.90
24452;DHT22;13350;50.984;5.822;2023-01-15T13:51:47;7.30;99.90
24452;DHT22;13350;50.984;5.822;2023-01-15T13:54:17;7.30;99.90
24452;DHT22;13350;50.984;5.822;2023-01-15T13:56:46;7.30;99.90
24452;DHT22;13350;50.984;5.822;2023-01-15T14:02:23;7.30;99.90
24452;DHT22;13350;50.984;5.822;2023-01-15T14:04:50;7.30;99.90
24452;DHT22;13350;50.984;5.822;2023-01-15T14:07:18;7.30;99.90
24452;DHT22;13350;50.984;5.822;2023-01-15T14:09:48;7.40;99.90
24452;DHT22;13350;50.984;5.822;2023-01-15T14:12:26;7.50;99.90
24452;DHT22;13350;50.984;5.822;2023-01-15T14:15:20;7.50;99.90
24452;DHT22;13350;50.984;5.822;2023-01-15T14:20:59;7.50;99.90
24452;DHT22;13350;50.984;5.822;2023-01-15T14:23:52;7.70;99.90
24452;DHT22;13350;50.984;5.822;2023-01-15T14:26:29;7.80;99.90
24452;DHT22;13350;50.984;5.822;2023-01-15T14:31:59;7.50;99.90
24452;DHT22;13350;50.984;5.822;2023-01-15T14:34:29;7.40;99.90
24452;DHT22;13350;50.984;5.822;2023-01-15T14:37:01;7.40;99.90
24452;DHT22;13350;50.984;5.822;2023-01-15T14:39:40;7.40;99.90
24452;DHT22;13350;50.984;5.822;2023-01-15T14:42:14;7.40;99.90
24452;DHT22;13350;50.984;5.822;2023-01-15T14:45:04;7.30;99.90
24452;DHT22;13350;50.984;5.822;2023-01-15T14:47:36;7.30;99.90
24452;DHT22;13350;50.984;5.822;2023-01-15T14:50:25;7.30;99.90
24452;DHT22;13350;50.984;5.822;2023-01-15T14:52:57;7.30;99.90
24452;DHT22;13350;50.984;5.822;2023-01-15T14:55:25;7.20;99.90
24452;DHT22;13350;50.984;5.822;2023-01-15T14:57:57;7.20;99.90
24452;DHT22;13350;50.984;5.822;2023-01-15T15:00:30;7.20;99.90
24452;DHT22;13350;50.984;5.822;2023-01-15T15:03:00;7.10;99.90
24452;DHT22;13350;50.984;5.822;2023-01-15T15:05:30;7.10;99.90
24452;DHT22;13350;50.984;5.822;2023-01-15T15:08:02;7.10;99.90
24452;DHT22;13350;50.984;5.822;2023-01-15T15:10:33;7.10;99.90
24452;DHT22;13350;50.984;5.822;2023-01-15T15:13:08;7.10;99.90
24452;DHT22;13350;50.984;5.822;2023-01-15T15:15:45;7.00;99.90
24452;DHT22;13350;50.984;5.822;2023-01-15T15:18:23;7.00;99.90
24452;DHT22;13350;50.984;5.822;2023-01-15T15:21:00;7.10;99.90
24452;DHT22;13350;50.984;5.822;2023-01-15T15:23:37;7.10;99.90
24452;DHT22;13350;50.984;5.822;2023-01-15T15:26:19;6.80;99.90
24452;DHT22;13350;50.984;5.822;2023-01-15T15:28:57;6.70;99.90
24452;DHT22;13350;50.984;5.822;2023-01-15T15:31:26;6.80;99.90
24452;DHT22;13350;50.984;5.822;2023-01-15T15:33:55;6.80;99.90
24452;DHT22;13350;50.984;5.822;2023-01-15T15:36:24;6.80;99.90
24452;DHT22;13350;50.984;5.822;2023-01-15T15:38:55;6.80;99.90
24452;DHT22;13350;50.984;5.822;2023-01-15T15:41:25;6.80;99.90
24452;DHT22;13350;50.984;5.822;2023-01-15T15:44:14;6.90;99.90
24452;DHT22;13350;50.984;5.822;2023-01-15T15:47:14;7.00;99.90
24452;DHT22;13350;50.984;5.822;2023-01-15T15:49:59;7.10;99.90
24452;DHT22;13350;50.984;5.822;2023-01-15T15:52:26;7.00;99.90
24452;DHT22;13350;50.984;5.822;2023-01-15T15:54:59;7.10;99.90
24452;DHT22;13350;50.984;5.822;2023-01-15T15:57:29;7.10;99.90
24452;DHT22;13350;50.984;5.822;2023-01-15T15:59:58;7.10;99.90
24452;DHT22;13350;50.984;5.822;2023-01-15T16:02:30;7.00;99.90
24452;DHT22;13350;50.984;5.822;2023-01-15T16:05:03;7.10;99.90
24452;DHT22;13350;50.984;5.822;2023-01-15T16:07:32;7.10;99.90
24452;DHT22;13350;50.984;5.822;2023-01-15T16:10:03;7.10;99.90
24452;DHT22;13350;50.984;5.822;2023-01-15T16:12:33;7.20;99.90
24452;DHT22;13350;50.984;5.822;2023-01-15T16:15:03;7.20;99.90
24452;DHT22;13350;50.984;5.822;2023-01-15T16:17:30;7.10;99.90
24452;DHT22;13350;50.984;5.822;2023-01-15T16:19:58;7.10;99.90
24452;DHT22;13350;50.984;5.822;2023-01-15T16:22:25;7.10;99.90
24452;DHT22;13350;50.984;5.822;2023-01-15T16:24:54;7.10;99.90
24452;DHT22;13350;50.984;5.822;2023-01-15T16:27:26;7.00;99.90
24452;DHT22;13350;50.984;5.822;2023-01-15T16:29:54;7.00;99.90
24452;DHT22;13350;50.984;5.822;2023-01-15T16:32:24;7.00;99.90